Weather at PL Fuller Rough Creek Ranch Airport

Public forecast

Using degrees Fahrenheit for public forecast. Weather courtesy of forecast.io.

Closest aviation weather report (METAR) to PL Fuller Rough Creek Ranch Airport

Closest report is Winston Field, 12.5 nm (23.2 km) SSW. Retrieved 2021/07/24 23:38 UTC (16 minutes ago):

KSNK 242338Z AUTO 12005KT 10SM CLR 36/18 A2999 RMK AO2

Closest aviation forecast (TAF) to PL Fuller Rough Creek Ranch Airport

Closest forecast is Dyess Air Force Base, 59.7 nm (110.6 km) ESE. Retrieved 2021/07/24 22:34 UTC (1 hour ago):

TAF KDYS 242219Z 2422/2602 17012KT 9999 SCT120 QNH2993INS BECMG 2423/2500 18012KT 9999 SKC QNH2989INS TEMPO 2510/2518 20012KT TX37/2520Z TN23/2512Z LAST NO AMDS AFT 2422 NEXT 2515